sensor_id;sensor_type;location;lat;lon;timestamp;P1;durP1;ratioP1;P2;durP2;ratioP2
2390;SDS011;22957;50.824;4.360;2023-07-02T00:00:53;1291.40;;;999.90;;
2390;SDS011;22957;50.824;4.360;2023-07-02T00:03:20;1295.67;;;999.90;;
2390;SDS011;22957;50.824;4.360;2023-07-02T00:05:47;1282.00;;;999.90;;
2390;SDS011;22957;50.824;4.360;2023-07-02T00:08:15;1289.30;;;999.90;;
2390;SDS011;22957;50.824;4.360;2023-07-02T00:10:41;1289.90;;;999.90;;
2390;SDS011;22957;50.824;4.360;2023-07-02T00:13:06;1286.50;;;999.90;;
2390;SDS011;22957;50.824;4.360;2023-07-02T00:15:32;1297.77;;;999.90;;
2390;SDS011;22957;50.824;4.360;2023-07-02T00:17:57;1283.10;;;999.90;;
2390;SDS011;22957;50.824;4.360;2023-07-02T00:20:23;1302.47;;;999.90;;
2390;SDS011;22957;50.824;4.360;2023-07-02T00:22:49;1298.63;;;999.90;;
2390;SDS011;22957;50.824;4.360;2023-07-02T00:25:15;1300.03;;;999.90;;
2390;SDS011;22957;50.824;4.360;2023-07-02T00:27:41;1288.03;;;999.90;;
2390;SDS011;22957;50.824;4.360;2023-07-02T00:30:07;1282.93;;;999.90;;
2390;SDS011;22957;50.824;4.360;2023-07-02T00:32:33;1283.67;;;999.90;;
2390;SDS011;22957;50.824;4.360;2023-07-02T00:34:58;1277.97;;;999.90;;
2390;SDS011;22957;50.824;4.360;2023-07-02T00:37:24;1303.67;;;999.90;;
2390;SDS011;22957;50.824;4.360;2023-07-02T00:39:50;1299.07;;;999.90;;
2390;SDS011;22957;50.824;4.360;2023-07-02T00:42:17;1291.23;;;999.90;;
2390;SDS011;22957;50.824;4.360;2023-07-02T00:44:43;1291.53;;;999.90;;
2390;SDS011;22957;50.824;4.360;2023-07-02T00:47:09;1287.37;;;999.90;;
2390;SDS011;22957;50.824;4.360;2023-07-02T00:49:36;1295.73;;;999.90;;
2390;SDS011;22957;50.824;4.360;2023-07-02T00:52:02;1281.43;;;999.90;;
2390;SDS011;22957;50.824;4.360;2023-07-02T00:54:28;1280.37;;;999.90;;
2390;SDS011;22957;50.824;4.360;2023-07-02T00:56:55;1286.03;;;999.90;;
2390;SDS011;22957;50.824;4.360;2023-07-02T00:59:21;1287.07;;;999.90;;
2390;SDS011;22957;50.824;4.360;2023-07-02T01:01:47;1296.00;;;999.90;;
2390;SDS011;22957;50.824;4.360;2023-07-02T01:04:16;1285.33;;;999.90;;
2390;SDS011;22957;50.824;4.360;2023-07-02T01:06:42;1283.43;;;999.90;;
2390;SDS011;22957;50.824;4.360;2023-07-02T01:09:08;1275.73;;;999.90;;
2390;SDS011;22957;50.824;4.360;2023-07-02T01:11:42;1269.77;;;999.90;;
2390;SDS011;22957;50.824;4.360;2023-07-02T01:14:21;1278.13;;;999.90;;
2390;SDS011;22957;50.824;4.360;2023-07-02T01:16:56;1281.20;;;999.90;;
2390;SDS011;22957;50.824;4.360;2023-07-02T01:22:16;1288.30;;;999.90;;
2390;SDS011;22957;50.824;4.360;2023-07-02T01:24:45;1280.93;;;999.90;;
2390;SDS011;22957;50.824;4.360;2023-07-02T01:27:12;1287.23;;;999.90;;
2390;SDS011;22957;50.824;4.360;2023-07-02T01:29:39;1293.10;;;999.90;;
2390;SDS011;22957;50.824;4.360;2023-07-02T01:32:06;1282.47;;;999.90;;
2390;SDS011;22957;50.824;4.360;2023-07-02T01:34:31;1281.77;;;999.90;;
2390;SDS011;22957;50.824;4.360;2023-07-02T01:36:57;1291.43;;;999.90;;
2390;SDS011;22957;50.824;4.360;2023-07-02T01:39:23;1289.70;;;999.90;;
2390;SDS011;22957;50.824;4.360;2023-07-02T01:41:53;1288.83;;;999.90;;
2390;SDS011;22957;50.824;4.360;2023-07-02T01:44:20;1290.40;;;999.90;;
2390;SDS011;22957;50.824;4.360;2023-07-02T01:46:47;1285.80;;;999.90;;
2390;SDS011;22957;50.824;4.360;2023-07-02T01:49:17;1295.93;;;999.90;;
2390;SDS011;22957;50.824;4.360;2023-07-02T01:51:49;1291.87;;;999.90;;
2390;SDS011;22957;50.824;4.360;2023-07-02T01:54:16;1303.23;;;999.90;;
2390;SDS011;22957;50.824;4.360;2023-07-02T01:56:42;1295.67;;;999.90;;
2390;SDS011;22957;50.824;4.360;2023-07-02T01:59:07;1286.13;;;999.90;;
2390;SDS011;22957;50.824;4.360;2023-07-02T02:01:34;1297.00;;;999.90;;
2390;SDS011;22957;50.824;4.360;2023-07-02T02:03:59;1286.63;;;999.90;;
2390;SDS011;22957;50.824;4.360;2023-07-02T02:06:25;1292.30;;;999.90;;
2390;SDS011;22957;50.824;4.360;2023-07-02T02:08:50;1273.70;;;999.90;;
2390;SDS011;22957;50.824;4.360;2023-07-02T02:11:16;1304.47;;;999.90;;
2390;SDS011;22957;50.824;4.360;2023-07-02T02:13:41;1290.70;;;999.90;;
2390;SDS011;22957;50.824;4.360;2023-07-02T02:16:07;1297.80;;;999.90;;
2390;SDS011;22957;50.824;4.360;2023-07-02T02:18:33;1300.50;;;999.90;;
2390;SDS011;22957;50.824;4.360;2023-07-02T02:20:58;1292.63;;;999.90;;
2390;SDS011;22957;50.824;4.360;2023-07-02T02:23:24;1301.17;;;999.90;;
2390;SDS011;22957;50.824;4.360;2023-07-02T02:25:49;1297.77;;;999.90;;
2390;SDS011;22957;50.824;4.360;2023-07-02T02:28:15;1287.27;;;999.90;;
2390;SDS011;22957;50.824;4.360;2023-07-02T02:30:40;1294.77;;;999.90;;
2390;SDS011;22957;50.824;4.360;2023-07-02T02:33:06;1283.37;;;999.90;;
2390;SDS011;22957;50.824;4.360;2023-07-02T02:35:31;1289.60;;;999.90;;
2390;SDS011;22957;50.824;4.360;2023-07-02T02:37:57;1288.03;;;999.90;;
2390;SDS011;22957;50.824;4.360;2023-07-02T02:40:23;1284.80;;;999.90;;
2390;SDS011;22957;50.824;4.360;2023-07-02T02:42:48;1289.97;;;999.90;;
2390;SDS011;22957;50.824;4.360;2023-07-02T02:45:14;1282.73;;;999.90;;
2390;SDS011;22957;50.824;4.360;2023-07-02T02:47:39;1285.20;;;999.90;;
2390;SDS011;22957;50.824;4.360;2023-07-02T02:50:05;1282.53;;;999.90;;
2390;SDS011;22957;50.824;4.360;2023-07-02T02:52:31;1286.23;;;999.90;;
2390;SDS011;22957;50.824;4.360;2023-07-02T02:54:57;1282.37;;;999.90;;
2390;SDS011;22957;50.824;4.360;2023-07-02T02:57:22;1270.87;;;999.90;;
2390;SDS011;22957;50.824;4.360;2023-07-02T02:59:48;1282.27;;;999.90;;
2390;SDS011;22957;50.824;4.360;2023-07-02T03:02:13;1278.53;;;999.90;;
2390;SDS011;22957;50.824;4.360;2023-07-02T03:04:39;1279.17;;;999.90;;
2390;SDS011;22957;50.824;4.360;2023-07-02T03:07:06;1269.43;;;999.90;;
2390;SDS011;22957;50.824;4.360;2023-07-02T03:09:32;1284.83;;;999.90;;
2390;SDS011;22957;50.824;4.360;2023-07-02T03:11:58;1279.60;;;999.90;;
2390;SDS011;22957;50.824;4.360;2023-07-02T03:14:24;1269.47;;;999.90;;
2390;SDS011;22957;50.824;4.360;2023-07-02T03:16:49;1277.93;;;999.90;;
2390;SDS011;22957;50.824;4.360;2023-07-02T03:19:15;1260.43;;;999.90;;
2390;SDS011;22957;50.824;4.360;2023-07-02T03:21:42;1254.47;;;999.90;;
2390;SDS011;22957;50.824;4.360;2023-07-02T03:24:08;1268.00;;;999.90;;
2390;SDS011;22957;50.824;4.360;2023-07-02T03:26:41;1273.97;;;999.90;;
2390;SDS011;22957;50.824;4.360;2023-07-02T03:29:07;1265.87;;;999.90;;
2390;SDS011;22957;50.824;4.360;2023-07-02T03:31:33;1255.03;;;999.90;;
2390;SDS011;22957;50.824;4.360;2023-07-02T03:34:01;1263.50;;;999.90;;
2390;SDS011;22957;50.824;4.360;2023-07-02T03:36:29;1268.57;;;999.90;;
2390;SDS011;22957;50.824;4.360;2023-07-02T03:38:54;1275.43;;;999.90;;
2390;SDS011;22957;50.824;4.360;2023-07-02T03:41:20;1260.73;;;999.90;;
2390;SDS011;22957;50.824;4.360;2023-07-02T03:43:45;1261.27;;;999.90;;
2390;SDS011;22957;50.824;4.360;2023-07-02T03:46:12;1262.23;;;999.90;;
2390;SDS011;22957;50.824;4.360;2023-07-02T03:48:38;1259.23;;;999.90;;
2390;SDS011;22957;50.824;4.360;2023-07-02T03:51:04;1265.63;;;999.90;;
2390;SDS011;22957;50.824;4.360;2023-07-02T03:53:30;1256.47;;;999.90;;
2390;SDS011;22957;50.824;4.360;2023-07-02T03:55:55;1270.30;;;999.90;;
2390;SDS011;22957;50.824;4.360;2023-07-02T03:58:21;1248.80;;;999.90;;
2390;SDS011;22957;50.824;4.360;2023-07-02T04:00:46;1255.87;;;999.90;;
2390;SDS011;22957;50.824;4.360;2023-07-02T04:03:14;1253.17;;;999.90;;
2390;SDS011;22957;50.824;4.360;2023-07-02T04:05:40;1257.43;;;999.90;;
2390;SDS011;22957;50.824;4.360;2023-07-02T04:08:06;1257.43;;;999.90;;
2390;SDS011;22957;50.824;4.360;2023-07-02T04:10:32;1251.87;;;999.90;;
2390;SDS011;22957;50.824;4.360;2023-07-02T04:12:58;1245.77;;;999.90;;
2390;SDS011;22957;50.824;4.360;2023-07-02T04:15:23;1254.17;;;999.90;;
2390;SDS011;22957;50.824;4.360;2023-07-02T04:17:50;1244.10;;;999.90;;
2390;SDS011;22957;50.824;4.360;2023-07-02T04:20:16;1249.00;;;999.90;;
2390;SDS011;22957;50.824;4.360;2023-07-02T04:22:43;1271.40;;;999.90;;
2390;SDS011;22957;50.824;4.360;2023-07-02T04:25:12;1254.77;;;999.90;;
2390;SDS011;22957;50.824;4.360;2023-07-02T04:27:42;1267.37;;;999.90;;
2390;SDS011;22957;50.824;4.360;2023-07-02T04:30:10;1258.43;;;999.90;;
2390;SDS011;22957;50.824;4.360;2023-07-02T04:32:37;1241.50;;;999.90;;
2390;SDS011;22957;50.824;4.360;2023-07-02T04:35:04;1255.07;;;999.90;;
2390;SDS011;22957;50.824;4.360;2023-07-02T04:37:31;1253.13;;;999.90;;
2390;SDS011;22957;50.824;4.360;2023-07-02T04:39:56;1266.27;;;999.90;;
2390;SDS011;22957;50.824;4.360;2023-07-02T04:42:22;1251.30;;;999.90;;
2390;SDS011;22957;50.824;4.360;2023-07-02T04:44:55;1252.00;;;999.90;;
2390;SDS011;22957;50.824;4.360;2023-07-02T04:47:21;1255.60;;;999.90;;
2390;SDS011;22957;50.824;4.360;2023-07-02T04:49:46;1265.20;;;999.90;;
2390;SDS011;22957;50.824;4.360;2023-07-02T04:52:12;1255.90;;;999.90;;
2390;SDS011;22957;50.824;4.360;2023-07-02T04:54:38;1262.03;;;999.90;;
2390;SDS011;22957;50.824;4.360;2023-07-02T04:57:03;1268.40;;;999.90;;
2390;SDS011;22957;50.824;4.360;2023-07-02T04:59:29;1266.87;;;999.90;;
2390;SDS011;22957;50.824;4.360;2023-07-02T05:01:55;1290.47;;;999.90;;
2390;SDS011;22957;50.824;4.360;2023-07-02T05:04:20;1273.60;;;999.90;;
2390;SDS011;22957;50.824;4.360;2023-07-02T05:06:46;1285.90;;;999.90;;
2390;SDS011;22957;50.824;4.360;2023-07-02T05:09:11;1290.47;;;999.90;;
2390;SDS011;22957;50.824;4.360;2023-07-02T05:11:37;1296.40;;;999.90;;
2390;SDS011;22957;50.824;4.360;2023-07-02T05:14:03;1300.87;;;999.90;;
2390;SDS011;22957;50.824;4.360;2023-07-02T05:16:28;1284.73;;;999.90;;
2390;SDS011;22957;50.824;4.360;2023-07-02T05:18:54;1280.27;;;999.90;;
2390;SDS011;22957;50.824;4.360;2023-07-02T05:21:19;1292.53;;;999.90;;
2390;SDS011;22957;50.824;4.360;2023-07-02T05:23:46;1306.57;;;999.90;;
2390;SDS011;22957;50.824;4.360;2023-07-02T05:26:12;1288.47;;;999.90;;
2390;SDS011;22957;50.824;4.360;2023-07-02T05:28:37;1290.23;;;999.90;;
2390;SDS011;22957;50.824;4.360;2023-07-02T05:31:03;1285.90;;;999.90;;
2390;SDS011;22957;50.824;4.360;2023-07-02T05:33:28;728.13;;;566.37;;
2390;SDS011;22957;50.824;4.360;2023-07-02T05:35:56;741.80;;;598.23;;
2390;SDS011;22957;50.824;4.360;2023-07-02T05:38:21;1296.43;;;999.90;;
2390;SDS011;22957;50.824;4.360;2023-07-02T05:40:47;1306.07;;;999.90;;
2390;SDS011;22957;50.824;4.360;2023-07-02T05:43:12;1317.37;;;999.90;;
2390;SDS011;22957;50.824;4.360;2023-07-02T05:45:38;1331.23;;;999.90;;
2390;SDS011;22957;50.824;4.360;2023-07-02T05:48:04;1324.13;;;999.90;;
2390;SDS011;22957;50.824;4.360;2023-07-02T05:50:30;1332.60;;;999.90;;
2390;SDS011;22957;50.824;4.360;2023-07-02T05:52:55;1339.43;;;999.90;;
2390;SDS011;22957;50.824;4.360;2023-07-02T05:55:21;1326.50;;;999.90;;
2390;SDS011;22957;50.824;4.360;2023-07-02T05:57:46;1335.10;;;999.90;;
2390;SDS011;22957;50.824;4.360;2023-07-02T06:00:12;1352.10;;;999.90;;
2390;SDS011;22957;50.824;4.360;2023-07-02T06:02:38;1340.53;;;999.90;;
2390;SDS011;22957;50.824;4.360;2023-07-02T06:05:04;1350.87;;;999.90;;
2390;SDS011;22957;50.824;4.360;2023-07-02T06:07:30;1349.77;;;999.90;;
2390;SDS011;22957;50.824;4.360;2023-07-02T06:09:55;1361.03;;;999.90;;
2390;SDS011;22957;50.824;4.360;2023-07-02T06:12:21;1370.93;;;999.90;;
2390;SDS011;22957;50.824;4.360;2023-07-02T06:14:47;1358.03;;;999.90;;
2390;SDS011;22957;50.824;4.360;2023-07-02T06:17:13;1393.23;;;999.90;;
2390;SDS011;22957;50.824;4.360;2023-07-02T06:19:39;1382.80;;;999.90;;
2390;SDS011;22957;50.824;4.360;2023-07-02T06:22:04;1397.40;;;999.90;;
2390;SDS011;22957;50.824;4.360;2023-07-02T06:24:30;1392.70;;;999.90;;
2390;SDS011;22957;50.824;4.360;2023-07-02T06:26:56;1393.97;;;999.90;;
2390;SDS011;22957;50.824;4.360;2023-07-02T06:29:24;1403.37;;;999.90;;
2390;SDS011;22957;50.824;4.360;2023-07-02T06:31:50;1410.60;;;999.90;;
2390;SDS011;22957;50.824;4.360;2023-07-02T06:34:16;1420.97;;;999.90;;
2390;SDS011;22957;50.824;4.360;2023-07-02T06:36:42;1415.87;;;999.90;;
2390;SDS011;22957;50.824;4.360;2023-07-02T06:39:08;1417.67;;;999.90;;
2390;SDS011;22957;50.824;4.360;2023-07-02T06:41:34;1431.67;;;999.90;;
2390;SDS011;22957;50.824;4.360;2023-07-02T06:44:03;1432.10;;;999.90;;
2390;SDS011;22957;50.824;4.360;2023-07-02T06:46:29;1438.10;;;999.90;;
2390;SDS011;22957;50.824;4.360;2023-07-02T06:48:55;1430.10;;;999.90;;
2390;SDS011;22957;50.824;4.360;2023-07-02T06:51:21;1434.10;;;999.90;;
2390;SDS011;22957;50.824;4.360;2023-07-02T06:53:47;1438.47;;;999.90;;
2390;SDS011;22957;50.824;4.360;2023-07-02T06:56:12;1434.37;;;999.90;;
2390;SDS011;22957;50.824;4.360;2023-07-02T06:58:41;1438.03;;;999.90;;
2390;SDS011;22957;50.824;4.360;2023-07-02T07:01:08;1434.13;;;999.90;;
2390;SDS011;22957;50.824;4.360;2023-07-02T07:03:36;1427.63;;;999.90;;
2390;SDS011;22957;50.824;4.360;2023-07-02T07:06:02;1437.60;;;999.90;;
2390;SDS011;22957;50.824;4.360;2023-07-02T07:08:28;1433.50;;;999.90;;
2390;SDS011;22957;50.824;4.360;2023-07-02T07:10:54;1437.97;;;999.90;;
2390;SDS011;22957;50.824;4.360;2023-07-02T07:13:20;1443.40;;;999.90;;
2390;SDS011;22957;50.824;4.360;2023-07-02T07:15:45;1439.40;;;999.90;;
2390;SDS011;22957;50.824;4.360;2023-07-02T07:18:11;1429.10;;;999.90;;
2390;SDS011;22957;50.824;4.360;2023-07-02T07:20:38;1434.17;;;999.90;;
2390;SDS011;22957;50.824;4.360;2023-07-02T07:23:04;1437.40;;;999.90;;
2390;SDS011;22957;50.824;4.360;2023-07-02T07:25:30;1424.80;;;999.90;;
2390;SDS011;22957;50.824;4.360;2023-07-02T07:27:55;1435.20;;;999.90;;
2390;SDS011;22957;50.824;4.360;2023-07-02T07:30:21;1432.47;;;999.90;;
2390;SDS011;22957;50.824;4.360;2023-07-02T07:32:50;1425.63;;;999.90;;
2390;SDS011;22957;50.824;4.360;2023-07-02T07:35:16;1429.47;;;999.90;;
2390;SDS011;22957;50.824;4.360;2023-07-02T07:37:42;1430.00;;;999.90;;
2390;SDS011;22957;50.824;4.360;2023-07-02T07:40:08;1434.33;;;999.90;;
2390;SDS011;22957;50.824;4.360;2023-07-02T07:42:33;1437.40;;;999.90;;
2390;SDS011;22957;50.824;4.360;2023-07-02T07:44:59;1441.97;;;999.90;;
2390;SDS011;22957;50.824;4.360;2023-07-02T07:47:25;1442.17;;;999.90;;
2390;SDS011;22957;50.824;4.360;2023-07-02T07:49:50;1438.60;;;999.90;;
2390;SDS011;22957;50.824;4.360;2023-07-02T07:52:16;1440.13;;;999.90;;
2390;SDS011;22957;50.824;4.360;2023-07-02T07:54:41;1434.80;;;999.90;;
2390;SDS011;22957;50.824;4.360;2023-07-02T07:57:07;1450.73;;;999.90;;
2390;SDS011;22957;50.824;4.360;2023-07-02T07:59:32;1440.10;;;999.90;;
2390;SDS011;22957;50.824;4.360;2023-07-02T08:01:58;1437.53;;;999.90;;
2390;SDS011;22957;50.824;4.360;2023-07-02T08:04:23;1438.67;;;999.90;;
2390;SDS011;22957;50.824;4.360;2023-07-02T08:06:49;1440.47;;;999.90;;
2390;SDS011;22957;50.824;4.360;2023-07-02T08:09:15;1447.27;;;999.90;;
2390;SDS011;22957;50.824;4.360;2023-07-02T08:11:40;1449.03;;;999.90;;
2390;SDS011;22957;50.824;4.360;2023-07-02T08:14:06;1450.10;;;999.90;;
2390;SDS011;22957;50.824;4.360;2023-07-02T08:16:31;1456.63;;;999.90;;
2390;SDS011;22957;50.824;4.360;2023-07-02T08:18:57;1453.47;;;999.90;;
2390;SDS011;22957;50.824;4.360;2023-07-02T08:21:22;1456.87;;;999.90;;
2390;SDS011;22957;50.824;4.360;2023-07-02T08:23:48;1454.70;;;999.90;;
2390;SDS011;22957;50.824;4.360;2023-07-02T08:26:13;1456.97;;;999.90;;
2390;SDS011;22957;50.824;4.360;2023-07-02T08:28:39;1469.73;;;999.90;;
2390;SDS011;22957;50.824;4.360;2023-07-02T08:31:05;1459.97;;;999.90;;
2390;SDS011;22957;50.824;4.360;2023-07-02T08:33:31;1467.17;;;999.90;;
2390;SDS011;22957;50.824;4.360;2023-07-02T08:35:56;1472.90;;;999.90;;
2390;SDS011;22957;50.824;4.360;2023-07-02T08:38:22;1464.07;;;999.90;;
2390;SDS011;22957;50.824;4.360;2023-07-02T08:40:51;1460.17;;;999.90;;
2390;SDS011;22957;50.824;4.360;2023-07-02T08:43:16;1452.73;;;999.90;;
2390;SDS011;22957;50.824;4.360;2023-07-02T08:45:42;1449.67;;;999.90;;
2390;SDS011;22957;50.824;4.360;2023-07-02T08:48:08;1447.03;;;999.90;;
2390;SDS011;22957;50.824;4.360;2023-07-02T08:50:35;1435.80;;;999.90;;
2390;SDS011;22957;50.824;4.360;2023-07-02T08:53:01;1438.50;;;999.90;;
2390;SDS011;22957;50.824;4.360;2023-07-02T08:55:26;1432.70;;;999.90;;
2390;SDS011;22957;50.824;4.360;2023-07-02T08:57:55;1440.23;;;999.90;;
2390;SDS011;22957;50.824;4.360;2023-07-02T09:00:25;1447.77;;;999.90;;
2390;SDS011;22957;50.824;4.360;2023-07-02T09:02:51;1462.87;;;999.90;;
2390;SDS011;22957;50.824;4.360;2023-07-02T09:05:17;1471.80;;;999.90;;
2390;SDS011;22957;50.824;4.360;2023-07-02T09:07:43;1459.73;;;999.90;;
2390;SDS011;22957;50.824;4.360;2023-07-02T09:10:10;1455.40;;;999.90;;
2390;SDS011;22957;50.824;4.360;2023-07-02T09:12:36;1451.30;;;999.90;;
2390;SDS011;22957;50.824;4.360;2023-07-02T09:15:04;1447.03;;;999.90;;
2390;SDS011;22957;50.824;4.360;2023-07-02T09:17:37;1451.33;;;999.90;;
2390;SDS011;22957;50.824;4.360;2023-07-02T09:20:04;1446.27;;;999.90;;
2390;SDS011;22957;50.824;4.360;2023-07-02T09:22:34;1444.93;;;999.90;;
2390;SDS011;22957;50.824;4.360;2023-07-02T09:25:01;1448.17;;;999.90;;
2390;SDS011;22957;50.824;4.360;2023-07-02T09:27:36;1435.73;;;999.90;;
2390;SDS011;22957;50.824;4.360;2023-07-02T09:32:41;1440.80;;;999.90;;
2390;SDS011;22957;50.824;4.360;2023-07-02T09:35:07;1435.97;;;999.90;;
2390;SDS011;22957;50.824;4.360;2023-07-02T09:37:33;1463.73;;;999.90;;
2390;SDS011;22957;50.824;4.360;2023-07-02T09:39:59;1476.20;;;999.90;;
2390;SDS011;22957;50.824;4.360;2023-07-02T09:42:26;1471.13;;;999.90;;
2390;SDS011;22957;50.824;4.360;2023-07-02T09:44:54;1469.43;;;999.90;;
2390;SDS011;22957;50.824;4.360;2023-07-02T09:47:21;1483.13;;;999.90;;
2390;SDS011;22957;50.824;4.360;2023-07-02T09:49:54;1485.20;;;999.90;;
2390;SDS011;22957;50.824;4.360;2023-07-02T09:52:24;1475.17;;;999.90;;
2390;SDS011;22957;50.824;4.360;2023-07-02T09:54:52;1476.27;;;999.90;;
2390;SDS011;22957;50.824;4.360;2023-07-02T09:57:18;1471.80;;;999.90;;
2390;SDS011;22957;50.824;4.360;2023-07-02T09:59:43;1465.40;;;999.90;;
2390;SDS011;22957;50.824;4.360;2023-07-02T10:02:09;1467.27;;;999.90;;
2390;SDS011;22957;50.824;4.360;2023-07-02T10:04:42;1465.17;;;999.90;;
2390;SDS011;22957;50.824;4.360;2023-07-02T10:07:10;1463.50;;;999.90;;
2390;SDS011;22957;50.824;4.360;2023-07-02T10:09:37;1455.37;;;999.90;;
2390;SDS011;22957;50.824;4.360;2023-07-02T10:12:25;1458.97;;;999.90;;
2390;SDS011;22957;50.824;4.360;2023-07-02T10:14:51;1457.13;;;999.90;;
2390;SDS011;22957;50.824;4.360;2023-07-02T10:17:28;1459.73;;;999.90;;
2390;SDS011;22957;50.824;4.360;2023-07-02T10:19:56;1452.23;;;999.90;;
2390;SDS011;22957;50.824;4.360;2023-07-02T10:22:23;1460.03;;;999.90;;
2390;SDS011;22957;50.824;4.360;2023-07-02T10:24:52;1469.63;;;999.90;;
2390;SDS011;22957;50.824;4.360;2023-07-02T10:27:20;1476.60;;;999.90;;
2390;SDS011;22957;50.824;4.360;2023-07-02T10:29:49;1474.83;;;999.90;;
2390;SDS011;22957;50.824;4.360;2023-07-02T10:32:25;1475.50;;;999.90;;
2390;SDS011;22957;50.824;4.360;2023-07-02T10:34:53;1469.10;;;999.90;;
2390;SDS011;22957;50.824;4.360;2023-07-02T10:37:18;1472.33;;;999.90;;
2390;SDS011;22957;50.824;4.360;2023-07-02T10:39:44;1472.37;;;999.90;;
2390;SDS011;22957;50.824;4.360;2023-07-02T10:42:10;1466.17;;;999.90;;
2390;SDS011;22957;50.824;4.360;2023-07-02T10:44:46;1460.20;;;999.90;;
2390;SDS011;22957;50.824;4.360;2023-07-02T10:47:16;1458.37;;;999.90;;
2390;SDS011;22957;50.824;4.360;2023-07-02T10:49:42;1464.33;;;999.90;;
2390;SDS011;22957;50.824;4.360;2023-07-02T10:52:08;1471.73;;;999.90;;
2390;SDS011;22957;50.824;4.360;2023-07-02T10:57:05;1490.97;;;999.90;;
2390;SDS011;22957;50.824;4.360;2023-07-02T10:59:32;1483.07;;;999.90;;
2390;SDS011;22957;50.824;4.360;2023-07-02T11:01:58;1487.00;;;999.90;;
2390;SDS011;22957;50.824;4.360;2023-07-02T11:04:27;1478.03;;;999.90;;
2390;SDS011;22957;50.824;4.360;2023-07-02T11:06:53;1479.77;;;999.90;;
2390;SDS011;22957;50.824;4.360;2023-07-02T11:09:19;1470.20;;;999.90;;
2390;SDS011;22957;50.824;4.360;2023-07-02T11:11:58;1475.23;;;999.90;;
2390;SDS011;22957;50.824;4.360;2023-07-02T11:14:32;1474.47;;;999.90;;
2390;SDS011;22957;50.824;4.360;2023-07-02T11:16:59;1458.73;;;999.90;;
2390;SDS011;22957;50.824;4.360;2023-07-02T11:19:28;1457.93;;;999.90;;
2390;SDS011;22957;50.824;4.360;2023-07-02T11:21:54;1460.07;;;999.90;;
2390;SDS011;22957;50.824;4.360;2023-07-02T11:27:00;1440.90;;;999.90;;
2390;SDS011;22957;50.824;4.360;2023-07-02T11:29:30;1450.53;;;999.90;;
2390;SDS011;22957;50.824;4.360;2023-07-02T11:32:09;1462.47;;;999.90;;
2390;SDS011;22957;50.824;4.360;2023-07-02T11:34:36;1454.27;;;999.90;;
2390;SDS011;22957;50.824;4.360;2023-07-02T11:37:03;1462.77;;;999.90;;
2390;SDS011;22957;50.824;4.360;2023-07-02T11:39:29;1472.07;;;999.90;;
2390;SDS011;22957;50.824;4.360;2023-07-02T11:41:55;1480.53;;;999.90;;
2390;SDS011;22957;50.824;4.360;2023-07-02T11:44:21;1481.17;;;999.90;;
2390;SDS011;22957;50.824;4.360;2023-07-02T11:46:47;1488.30;;;999.90;;
2390;SDS011;22957;50.824;4.360;2023-07-02T11:49:13;1427.67;;;999.90;;
2390;SDS011;22957;50.824;4.360;2023-07-02T11:51:39;1437.10;;;999.90;;
2390;SDS011;22957;50.824;4.360;2023-07-02T11:54:06;1441.90;;;999.90;;
2390;SDS011;22957;50.824;4.360;2023-07-02T11:56:32;1486.00;;;999.90;;
2390;SDS011;22957;50.824;4.360;2023-07-02T11:58:58;1472.63;;;999.90;;
2390;SDS011;22957;50.824;4.360;2023-07-02T12:01:24;1481.33;;;999.90;;
2390;SDS011;22957;50.824;4.360;2023-07-02T12:03:50;1460.53;;;999.90;;
2390;SDS011;22957;50.824;4.360;2023-07-02T12:06:16;1431.27;;;999.90;;
2390;SDS011;22957;50.824;4.360;2023-07-02T12:08:41;1424.20;;;999.90;;
2390;SDS011;22957;50.824;4.360;2023-07-02T12:11:07;1467.17;;;999.90;;
2390;SDS011;22957;50.824;4.360;2023-07-02T12:13:33;1470.97;;;999.90;;
2390;SDS011;22957;50.824;4.360;2023-07-02T12:15:59;1467.93;;;999.90;;
2390;SDS011;22957;50.824;4.360;2023-07-02T12:18:24;1480.27;;;999.90;;
2390;SDS011;22957;50.824;4.360;2023-07-02T12:20:50;1481.77;;;999.90;;
2390;SDS011;22957;50.824;4.360;2023-07-02T12:23:15;1474.33;;;999.90;;
2390;SDS011;22957;50.824;4.360;2023-07-02T12:25:41;1472.67;;;999.90;;
2390;SDS011;22957;50.824;4.360;2023-07-02T12:28:07;1481.03;;;999.90;;
2390;SDS011;22957;50.824;4.360;2023-07-02T12:30:32;1487.77;;;999.90;;
2390;SDS011;22957;50.824;4.360;2023-07-02T12:32:58;1486.77;;;999.90;;
2390;SDS011;22957;50.824;4.360;2023-07-02T12:35:24;1483.67;;;999.90;;
2390;SDS011;22957;50.824;4.360;2023-07-02T12:37:50;1485.83;;;999.90;;
2390;SDS011;22957;50.824;4.360;2023-07-02T12:40:16;1483.57;;;999.90;;
2390;SDS011;22957;50.824;4.360;2023-07-02T12:42:43;1487.57;;;999.90;;
2390;SDS011;22957;50.824;4.360;2023-07-02T12:45:10;1476.13;;;999.90;;
2390;SDS011;22957;50.824;4.360;2023-07-02T12:47:38;1467.07;;;999.90;;
2390;SDS011;22957;50.824;4.360;2023-07-02T12:50:04;1460.77;;;999.90;;
2390;SDS011;22957;50.824;4.360;2023-07-02T12:52:31;1465.43;;;999.90;;
2390;SDS011;22957;50.824;4.360;2023-07-02T12:54:56;1466.37;;;999.90;;
2390;SDS011;22957;50.824;4.360;2023-07-02T12:57:22;1473.57;;;999.90;;
2390;SDS011;22957;50.824;4.360;2023-07-02T12:59:47;1474.10;;;999.90;;
2390;SDS011;22957;50.824;4.360;2023-07-02T13:02:13;1476.30;;;999.90;;
2390;SDS011;22957;50.824;4.360;2023-07-02T13:04:39;1479.47;;;999.90;;
2390;SDS011;22957;50.824;4.360;2023-07-02T13:07:04;1486.07;;;999.90;;
2390;SDS011;22957;50.824;4.360;2023-07-02T13:09:31;1482.57;;;999.90;;
2390;SDS011;22957;50.824;4.360;2023-07-02T13:11:56;1478.50;;;999.90;;
2390;SDS011;22957;50.824;4.360;2023-07-02T13:14:22;1481.23;;;999.90;;
2390;SDS011;22957;50.824;4.360;2023-07-02T13:16:47;1478.80;;;999.90;;
2390;SDS011;22957;50.824;4.360;2023-07-02T13:19:13;1475.03;;;999.90;;
2390;SDS011;22957;50.824;4.360;2023-07-02T13:21:40;1476.97;;;999.90;;
2390;SDS011;22957;50.824;4.360;2023-07-02T13:24:05;1474.17;;;999.90;;
2390;SDS011;22957;50.824;4.360;2023-07-02T13:26:31;1486.47;;;999.90;;
2390;SDS011;22957;50.824;4.360;2023-07-02T13:28:57;1481.33;;;999.90;;
2390;SDS011;22957;50.824;4.360;2023-07-02T13:31:22;1487.87;;;999.90;;
2390;SDS011;22957;50.824;4.360;2023-07-02T13:33:48;1492.13;;;999.90;;
2390;SDS011;22957;50.824;4.360;2023-07-02T13:36:15;1501.83;;;999.90;;
2390;SDS011;22957;50.824;4.360;2023-07-02T13:38:41;1500.17;;;999.90;;
2390;SDS011;22957;50.824;4.360;2023-07-02T13:41:07;1494.70;;;999.90;;
2390;SDS011;22957;50.824;4.360;2023-07-02T13:43:32;1490.70;;;999.90;;
2390;SDS011;22957;50.824;4.360;2023-07-02T13:45:58;1486.77;;;999.90;;
2390;SDS011;22957;50.824;4.360;2023-07-02T13:48:24;1491.47;;;999.90;;
2390;SDS011;22957;50.824;4.360;2023-07-02T13:50:49;1483.50;;;999.90;;
2390;SDS011;22957;50.824;4.360;2023-07-02T13:53:15;1485.17;;;999.90;;
2390;SDS011;22957;50.824;4.360;2023-07-02T13:55:41;1478.97;;;999.90;;
2390;SDS011;22957;50.824;4.360;2023-07-02T13:58:06;1489.63;;;999.90;;
2390;SDS011;22957;50.824;4.360;2023-07-02T14:00:32;1494.53;;;999.90;;
2390;SDS011;22957;50.824;4.360;2023-07-02T14:02:57;1496.13;;;999.90;;